sensor_id;sensor_type;location;lat;lon;timestamp;pressure;altitude;pressure_sealevel;temperature;humidity
27334;BME280;14817;57.104;-2.094;2023-02-13T00:02:05;102250.88;;;4.70;100.00
27334;BME280;14817;57.104;-2.094;2023-02-13T00:04:32;102246.69;;;4.65;100.00
27334;BME280;14817;57.104;-2.094;2023-02-13T00:07:02;102254.75;;;4.63;100.00
27334;BME280;14817;57.104;-2.094;2023-02-13T00:09:29;102248.78;;;4.58;100.00
27334;BME280;14817;57.104;-2.094;2023-02-13T00:11:58;102257.75;;;4.56;100.00
27334;BME280;14817;57.104;-2.094;2023-02-13T00:14:25;102252.22;;;4.60;100.00
27334;BME280;14817;57.104;-2.094;2023-02-13T00:16:51;102244.44;;;4.57;100.00
27334;BME280;14817;57.104;-2.094;2023-02-13T00:19:20;102245.34;;;4.56;100.00
27334;BME280;14817;57.104;-2.094;2023-02-13T00:21:47;102250.13;;;4.48;100.00
27334;BME280;14817;57.104;-2.094;2023-02-13T00:24:14;102253.78;;;4.45;100.00
27334;BME280;14817;57.104;-2.094;2023-02-13T00:26:41;102258.41;;;4.42;100.00
27334;BME280;14817;57.104;-2.094;2023-02-13T00:29:08;102260.66;;;4.30;100.00
27334;BME280;14817;57.104;-2.094;2023-02-13T00:31:36;102252.69;;;4.30;100.00
27334;BME280;14817;57.104;-2.094;2023-02-13T00:34:03;102253.75;;;4.26;100.00
27334;BME280;14817;57.104;-2.094;2023-02-13T00:36:29;102255.34;;;4.30;100.00
27334;BME280;14817;57.104;-2.094;2023-02-13T00:38:56;102246.91;;;4.41;100.00
27334;BME280;14817;57.104;-2.094;2023-02-13T00:41:23;102249.38;;;4.46;100.00
27334;BME280;14817;57.104;-2.094;2023-02-13T00:43:50;102259.88;;;4.47;100.00
27334;BME280;14817;57.104;-2.094;2023-02-13T00:46:16;102257.41;;;4.44;100.00
27334;BME280;14817;57.104;-2.094;2023-02-13T00:48:44;102243.97;;;4.47;100.00
27334;BME280;14817;57.104;-2.094;2023-02-13T00:51:10;102228.91;;;4.48;100.00
27334;BME280;14817;57.104;-2.094;2023-02-13T00:53:37;102237.66;;;4.50;100.00
27334;BME280;14817;57.104;-2.094;2023-02-13T00:56:04;102243.06;;;4.48;100.00
27334;BME280;14817;57.104;-2.094;2023-02-13T00:58:32;102244.19;;;4.43;100.00
27334;BME280;14817;57.104;-2.094;2023-02-13T01:00:58;102232.78;;;4.41;100.00
27334;BME280;14817;57.104;-2.094;2023-02-13T01:03:25;102246.19;;;4.38;100.00
27334;BME280;14817;57.104;-2.094;2023-02-13T01:05:52;102240.81;;;4.39;100.00
27334;BME280;14817;57.104;-2.094;2023-02-13T01:08:19;102235.44;;;4.41;100.00
27334;BME280;14817;57.104;-2.094;2023-02-13T01:10:46;102234.72;;;4.37;100.00
27334;BME280;14817;57.104;-2.094;2023-02-13T01:13:14;102235.00;;;4.31;100.00
27334;BME280;14817;57.104;-2.094;2023-02-13T01:15:41;102240.22;;;4.33;100.00
27334;BME280;14817;57.104;-2.094;2023-02-13T01:18:08;102242.25;;;4.27;100.00
27334;BME280;14817;57.104;-2.094;2023-02-13T01:20:35;102247.53;;;4.27;100.00
27334;BME280;14817;57.104;-2.094;2023-02-13T01:23:02;102243.16;;;4.26;100.00
27334;BME280;14817;57.104;-2.094;2023-02-13T01:25:28;102235.25;;;4.06;100.00
27334;BME280;14817;57.104;-2.094;2023-02-13T01:27:56;102234.41;;;4.05;100.00
27334;BME280;14817;57.104;-2.094;2023-02-13T01:30:23;102231.66;;;4.07;100.00
27334;BME280;14817;57.104;-2.094;2023-02-13T01:32:49;102233.50;;;4.05;100.00
27334;BME280;14817;57.104;-2.094;2023-02-13T01:35:16;102234.47;;;4.04;100.00
27334;BME280;14817;57.104;-2.094;2023-02-13T01:37:42;102233.50;;;4.05;100.00
27334;BME280;14817;57.104;-2.094;2023-02-13T01:40:10;102227.56;;;4.00;100.00
27334;BME280;14817;57.104;-2.094;2023-02-13T01:42:37;102230.34;;;3.97;100.00
27334;BME280;14817;57.104;-2.094;2023-02-13T01:45:24;102231.22;;;3.97;100.00
27334;BME280;14817;57.104;-2.094;2023-02-13T01:48:04;102235.94;;;3.91;100.00
27334;BME280;14817;57.104;-2.094;2023-02-13T01:50:40;102244.78;;;3.89;100.00
27334;BME280;14817;57.104;-2.094;2023-02-13T01:55:37;102232.34;;;3.92;100.00
27334;BME280;14817;57.104;-2.094;2023-02-13T01:58:08;102225.38;;;3.89;100.00
27334;BME280;14817;57.104;-2.094;2023-02-13T02:00:37;102225.31;;;3.91;100.00
27334;BME280;14817;57.104;-2.094;2023-02-13T02:03:09;102230.75;;;3.87;100.00
27334;BME280;14817;57.104;-2.094;2023-02-13T02:05:37;102241.59;;;3.81;100.00
27334;BME280;14817;57.104;-2.094;2023-02-13T02:08:05;102237.47;;;3.76;100.00
27334;BME280;14817;57.104;-2.094;2023-02-13T02:10:35;102237.63;;;3.71;100.00
27334;BME280;14817;57.104;-2.094;2023-02-13T02:13:14;102240.28;;;3.71;100.00
27334;BME280;14817;57.104;-2.094;2023-02-13T02:15:42;102242.13;;;3.69;100.00
27334;BME280;14817;57.104;-2.094;2023-02-13T02:18:19;102232.63;;;3.65;100.00
27334;BME280;14817;57.104;-2.094;2023-02-13T02:38:59;102226.06;;;3.74;100.00
27334;BME280;14817;57.104;-2.094;2023-02-13T02:41:31;102218.03;;;3.75;100.00
27334;BME280;14817;57.104;-2.094;2023-02-13T02:44:31;102212.81;;;3.74;100.00
27334;BME280;14817;57.104;-2.094;2023-02-13T02:47:17;102208.38;;;3.74;100.00
27334;BME280;14817;57.104;-2.094;2023-02-13T02:55:36;102210.78;;;3.58;100.00
27334;BME280;14817;57.104;-2.094;2023-02-13T02:58:10;102214.34;;;3.59;100.00
27334;BME280;14817;57.104;-2.094;2023-02-13T03:00:59;102208.16;;;3.58;100.00
27334;BME280;14817;57.104;-2.094;2023-02-13T03:03:46;102214.19;;;3.62;100.00
27334;BME280;14817;57.104;-2.094;2023-02-13T03:09:11;102216.19;;;3.57;100.00
27334;BME280;14817;57.104;-2.094;2023-02-13T03:11:59;102215.03;;;3.62;100.00
27334;BME280;14817;57.104;-2.094;2023-02-13T03:14:44;102210.44;;;3.67;100.00
27334;BME280;14817;57.104;-2.094;2023-02-13T03:17:12;102205.19;;;3.66;100.00
27334;BME280;14817;57.104;-2.094;2023-02-13T03:28:09;102191.78;;;3.69;100.00
27334;BME280;14817;57.104;-2.094;2023-02-13T03:31:03;102190.13;;;3.66;100.00
27334;BME280;14817;57.104;-2.094;2023-02-13T03:39:11;102195.63;;;3.62;100.00
27334;BME280;14817;57.104;-2.094;2023-02-13T03:41:41;102185.72;;;3.67;100.00
27334;BME280;14817;57.104;-2.094;2023-02-13T03:44:19;102188.03;;;3.75;100.00
27334;BME280;14817;57.104;-2.094;2023-02-13T03:46:49;102182.13;;;3.68;100.00
27334;BME280;14817;57.104;-2.094;2023-02-13T03:49:19;102185.72;;;3.67;100.00
27334;BME280;14817;57.104;-2.094;2023-02-13T03:52:10;102182.88;;;3.72;100.00
27334;BME280;14817;57.104;-2.094;2023-02-13T03:57:24;102183.97;;;3.66;100.00
27334;BME280;14817;57.104;-2.094;2023-02-13T04:00:12;102197.38;;;3.63;100.00
27334;BME280;14817;57.104;-2.094;2023-02-13T04:05:42;102198.75;;;3.51;100.00
27334;BME280;14817;57.104;-2.094;2023-02-13T04:08:10;102187.09;;;3.55;100.00
27334;BME280;14817;57.104;-2.094;2023-02-13T04:10:39;102179.00;;;3.58;100.00
27334;BME280;14817;57.104;-2.094;2023-02-13T04:13:13;102182.53;;;3.59;100.00
27334;BME280;14817;57.104;-2.094;2023-02-13T04:15:47;102188.75;;;3.58;100.00
27334;BME280;14817;57.104;-2.094;2023-02-13T04:18:22;102187.94;;;3.56;100.00
27334;BME280;14817;57.104;-2.094;2023-02-13T04:20:50;102196.03;;;3.53;100.00
27334;BME280;14817;57.104;-2.094;2023-02-13T04:23:17;102191.91;;;3.45;100.00
27334;BME280;14817;57.104;-2.094;2023-02-13T04:25:46;102203.44;;;3.44;100.00
27334;BME280;14817;57.104;-2.094;2023-02-13T04:28:14;102191.13;;;3.43;100.00
27334;BME280;14817;57.104;-2.094;2023-02-13T04:30:40;102195.56;;;3.43;100.00
27334;BME280;14817;57.104;-2.094;2023-02-13T04:33:07;102192.00;;;3.44;100.00
27334;BME280;14817;57.104;-2.094;2023-02-13T04:35:34;102182.22;;;3.46;100.00
27334;BME280;14817;57.104;-2.094;2023-02-13T04:38:01;102189.56;;;3.39;100.00
27334;BME280;14817;57.104;-2.094;2023-02-13T04:40:27;102199.34;;;3.37;100.00
27334;BME280;14817;57.104;-2.094;2023-02-13T04:42:54;102200.16;;;3.39;100.00
27334;BME280;14817;57.104;-2.094;2023-02-13T04:45:21;102197.66;;;3.35;100.00
27334;BME280;14817;57.104;-2.094;2023-02-13T04:47:51;102208.47;;;3.30;100.00
27334;BME280;14817;57.104;-2.094;2023-02-13T04:50:19;102199.66;;;3.30;100.00
27334;BME280;14817;57.104;-2.094;2023-02-13T04:52:46;102189.13;;;3.28;100.00
27334;BME280;14817;57.104;-2.094;2023-02-13T04:55:12;102188.53;;;3.21;100.00
27334;BME280;14817;57.104;-2.094;2023-02-13T04:57:39;102190.06;;;3.27;100.00
27334;BME280;14817;57.104;-2.094;2023-02-13T05:00:06;102187.41;;;3.27;100.00
27334;BME280;14817;57.104;-2.094;2023-02-13T05:02:33;102190.13;;;3.25;100.00
27334;BME280;14817;57.104;-2.094;2023-02-13T05:05:00;102197.31;;;3.22;100.00
27334;BME280;14817;57.104;-2.094;2023-02-13T05:07:27;102193.00;;;3.19;100.00
27334;BME280;14817;57.104;-2.094;2023-02-13T05:09:53;102188.53;;;3.21;100.00
27334;BME280;14817;57.104;-2.094;2023-02-13T05:12:20;102180.53;;;3.23;100.00
27334;BME280;14817;57.104;-2.094;2023-02-13T05:14:46;102173.50;;;3.22;100.00
27334;BME280;14817;57.104;-2.094;2023-02-13T05:17:15;102176.13;;;3.22;100.00
27334;BME280;14817;57.104;-2.094;2023-02-13T05:19:42;102175.28;;;3.21;100.00
27334;BME280;14817;57.104;-2.094;2023-02-13T05:22:09;102171.78;;;3.21;100.00
27334;BME280;14817;57.104;-2.094;2023-02-13T05:24:54;102177.31;;;3.15;100.00
27334;BME280;14817;57.104;-2.094;2023-02-13T05:27:21;102172.19;;;3.12;100.00
27334;BME280;14817;57.104;-2.094;2023-02-13T05:29:48;102173.88;;;3.13;100.00
27334;BME280;14817;57.104;-2.094;2023-02-13T05:32:14;102159.78;;;3.12;100.00
27334;BME280;14817;57.104;-2.094;2023-02-13T05:34:41;102164.41;;;3.07;100.00
27334;BME280;14817;57.104;-2.094;2023-02-13T05:37:08;102163.53;;;3.06;100.00
27334;BME280;14817;57.104;-2.094;2023-02-13T05:39:34;102159.09;;;3.07;100.00
27334;BME280;14817;57.104;-2.094;2023-02-13T05:42:01;102165.09;;;3.12;100.00
27334;BME280;14817;57.104;-2.094;2023-02-13T05:44:30;102160.59;;;3.14;100.00
27334;BME280;14817;57.104;-2.094;2023-02-13T05:46:57;102162.38;;;3.14;100.00
27334;BME280;14817;57.104;-2.094;2023-02-13T05:49:23;102160.78;;;3.10;100.00
27334;BME280;14817;57.104;-2.094;2023-02-13T05:51:50;102154.44;;;3.14;100.00
27334;BME280;14817;57.104;-2.094;2023-02-13T05:54:17;102158.81;;;3.15;100.00
27334;BME280;14817;57.104;-2.094;2023-02-13T05:56:44;102162.38;;;3.14;100.00
27334;BME280;14817;57.104;-2.094;2023-02-13T05:59:11;102168.53;;;3.14;100.00
27334;BME280;14817;57.104;-2.094;2023-02-13T06:01:37;102166.00;;;3.11;100.00
27334;BME280;14817;57.104;-2.094;2023-02-13T06:04:04;102166.19;;;3.06;100.00
27334;BME280;14817;57.104;-2.094;2023-02-13T06:06:31;102170.81;;;3.01;100.00
27334;BME280;14817;57.104;-2.094;2023-02-13T06:08:58;102167.31;;;3.01;100.00
27334;BME280;14817;57.104;-2.094;2023-02-13T06:11:24;102166.63;;;2.96;100.00
27334;BME280;14817;57.104;-2.094;2023-02-13T06:13:51;102164.00;;;2.96;100.00
27334;BME280;14817;57.104;-2.094;2023-02-13T06:16:17;102167.50;;;2.96;100.00
27334;BME280;14817;57.104;-2.094;2023-02-13T06:18:44;102165.63;;;2.98;100.00
27334;BME280;14817;57.104;-2.094;2023-02-13T06:21:11;102165.63;;;2.98;100.00
27334;BME280;14817;57.104;-2.094;2023-02-13T06:23:37;102168.44;;;2.95;100.00
27334;BME280;14817;57.104;-2.094;2023-02-13T06:26:05;102170.09;;;2.98;100.00
27334;BME280;14817;57.104;-2.094;2023-02-13T06:28:32;102165.78;;;2.95;100.00
27334;BME280;14817;57.104;-2.094;2023-02-13T06:30:59;102164.84;;;2.96;100.00
27334;BME280;14817;57.104;-2.094;2023-02-13T06:33:26;102167.81;;;2.89;100.00
27334;BME280;14817;57.104;-2.094;2023-02-13T06:35:53;102177.66;;;2.85;100.00
27334;BME280;14817;57.104;-2.094;2023-02-13T06:38:20;102173.41;;;2.81;100.00
27334;BME280;14817;57.104;-2.094;2023-02-13T06:40:47;102171.81;;;2.77;100.00
27334;BME280;14817;57.104;-2.094;2023-02-13T06:43:14;102170.94;;;2.76;100.00
27334;BME280;14817;57.104;-2.094;2023-02-13T06:45:41;102164.72;;;2.77;100.00
27334;BME280;14817;57.104;-2.094;2023-02-13T06:48:07;102170.72;;;2.82;100.00
27334;BME280;14817;57.104;-2.094;2023-02-13T06:50:34;102173.31;;;2.84;100.00
27334;BME280;14817;57.104;-2.094;2023-02-13T06:53:01;102172.50;;;2.82;100.00
27334;BME280;14817;57.104;-2.094;2023-02-13T06:55:27;102177.91;;;2.79;100.00
27334;BME280;14817;57.104;-2.094;2023-02-13T06:57:54;102177.09;;;2.77;100.00
27334;BME280;14817;57.104;-2.094;2023-02-13T07:00:21;102160.31;;;2.78;100.00
27334;BME280;14817;57.104;-2.094;2023-02-13T07:02:47;102159.63;;;2.73;100.00
27334;BME280;14817;57.104;-2.094;2023-02-13T07:05:14;102155.31;;;2.70;100.00
27334;BME280;14817;57.104;-2.094;2023-02-13T07:07:41;102154.47;;;2.70;100.00
27334;BME280;14817;57.104;-2.094;2023-02-13T07:10:09;102157.41;;;2.62;100.00
27334;BME280;14817;57.104;-2.094;2023-02-13T07:12:36;102159.44;;;2.55;100.00
27334;BME280;14817;57.104;-2.094;2023-02-13T07:15:03;102159.44;;;2.55;100.00
27334;BME280;14817;57.104;-2.094;2023-02-13T07:17:30;102158.00;;;2.47;100.00
27334;BME280;14817;57.104;-2.094;2023-02-13T07:19:57;102170.16;;;2.52;100.00
27334;BME280;14817;57.104;-2.094;2023-02-13T07:22:24;102165.81;;;2.50;100.00
27334;BME280;14817;57.104;-2.094;2023-02-13T07:24:50;102160.59;;;2.48;100.00
27334;BME280;14817;57.104;-2.094;2023-02-13T07:27:17;102165.09;;;2.46;100.00
27334;BME280;14817;57.104;-2.094;2023-02-13T07:29:43;102160.94;;;2.39;100.00
27334;BME280;14817;57.104;-2.094;2023-02-13T07:32:10;102157.41;;;2.40;100.00
27334;BME280;14817;57.104;-2.094;2023-02-13T07:34:37;102153.94;;;2.38;100.00
27334;BME280;14817;57.104;-2.094;2023-02-13T07:37:11;102152.97;;;2.40;100.00
27334;BME280;14817;57.104;-2.094;2023-02-13T07:39:38;102157.41;;;2.40;100.00
27334;BME280;14817;57.104;-2.094;2023-02-13T07:42:05;102158.00;;;2.47;100.00
27334;BME280;14817;57.104;-2.094;2023-02-13T07:44:31;102151.13;;;2.42;100.00
27334;BME280;14817;57.104;-2.094;2023-02-13T07:46:58;102162.53;;;2.43;100.00
27334;BME280;14817;57.104;-2.094;2023-02-13T07:49:26;102161.59;;;2.45;100.00
27334;BME280;14817;57.104;-2.094;2023-02-13T07:51:54;102165.75;;;2.51;100.00
27334;BME280;14817;57.104;-2.094;2023-02-13T07:54:21;102158.81;;;2.71;100.00
27334;BME280;14817;57.104;-2.094;2023-02-13T07:56:47;102158.53;;;2.78;100.00
27334;BME280;14817;57.104;-2.094;2023-02-13T07:59:14;102165.88;;;2.92;100.00
27334;BME280;14817;57.104;-2.094;2023-02-13T08:01:41;102157.69;;;2.98;100.00
27334;BME280;14817;57.104;-2.094;2023-02-13T08:04:08;102159.19;;;3.05;100.00
27334;BME280;14817;57.104;-2.094;2023-02-13T08:06:37;102156.22;;;3.13;100.00
27334;BME280;14817;57.104;-2.094;2023-02-13T08:09:03;102159.69;;;3.36;100.00
27334;BME280;14817;57.104;-2.094;2023-02-13T08:11:49;102156.81;;;3.81;100.00
27334;BME280;14817;57.104;-2.094;2023-02-13T08:14:20;102151.28;;;4.25;100.00
27334;BME280;14817;57.104;-2.094;2023-02-13T08:16:47;102155.41;;;4.50;100.00
27334;BME280;14817;57.104;-2.094;2023-02-13T08:19:13;102154.72;;;4.65;100.00
27334;BME280;14817;57.104;-2.094;2023-02-13T08:21:40;102156.34;;;5.04;100.00
27334;BME280;14817;57.104;-2.094;2023-02-13T08:24:07;102166.13;;;5.21;100.00
27334;BME280;14817;57.104;-2.094;2023-02-13T08:26:33;102148.78;;;5.49;100.00
27334;BME280;14817;57.104;-2.094;2023-02-13T08:29:00;102150.34;;;5.53;100.00
27334;BME280;14817;57.104;-2.094;2023-02-13T08:31:27;102156.41;;;5.72;100.00
27334;BME280;14817;57.104;-2.094;2023-02-13T08:33:54;102145.94;;;5.52;100.00
27334;BME280;14817;57.104;-2.094;2023-02-13T08:36:21;102160.09;;;5.52;100.00
27334;BME280;14817;57.104;-2.094;2023-02-13T08:38:48;102154.06;;;5.66;100.00
27334;BME280;14817;57.104;-2.094;2023-02-13T08:41:15;102157.72;;;5.81;100.00
27334;BME280;14817;57.104;-2.094;2023-02-13T08:43:47;102158.25;;;5.88;100.00
27334;BME280;14817;57.104;-2.094;2023-02-13T08:46:15;102152.91;;;6.05;100.00
27334;BME280;14817;57.104;-2.094;2023-02-13T08:48:42;102152.38;;;6.32;100.00
27334;BME280;14817;57.104;-2.094;2023-02-13T08:51:09;102144.47;;;6.30;100.00
27334;BME280;14817;57.104;-2.094;2023-02-13T08:53:37;102143.44;;;6.33;100.00
27334;BME280;14817;57.104;-2.094;2023-02-13T08:56:04;102150.91;;;6.58;100.00
27334;BME280;14817;57.104;-2.094;2023-02-13T08:58:31;102146.69;;;6.70;100.00
27334;BME280;14817;57.104;-2.094;2023-02-13T09:00:57;102154.00;;;6.66;100.00
27334;BME280;14817;57.104;-2.094;2023-02-13T09:03:24;102156.41;;;6.71;100.00
27334;BME280;14817;57.104;-2.094;2023-02-13T09:05:51;102162.66;;;6.86;100.00
27334;BME280;14817;57.104;-2.094;2023-02-13T09:08:17;102158.69;;;6.93;100.00
27334;BME280;14817;57.104;-2.094;2023-02-13T09:10:44;102155.94;;;6.94;100.00
27334;BME280;14817;57.104;-2.094;2023-02-13T09:13:11;102157.00;;;7.22;100.00
27334;BME280;14817;57.104;-2.094;2023-02-13T09:15:38;102153.66;;;7.19;100.00
27334;BME280;14817;57.104;-2.094;2023-02-13T09:18:06;102149.25;;;7.48;100.00
27334;BME280;14817;57.104;-2.094;2023-02-13T09:20:32;102143.69;;;7.67;100.00
27334;BME280;14817;57.104;-2.094;2023-02-13T09:23:01;102145.78;;;7.31;100.00
27334;BME280;14817;57.104;-2.094;2023-02-13T09:25:28;102150.47;;;7.42;100.00
27334;BME280;14817;57.104;-2.094;2023-02-13T09:27:54;102146.44;;;7.65;100.00
27334;BME280;14817;57.104;-2.094;2023-02-13T09:30:21;102135.19;;;8.03;100.00
27334;BME280;14817;57.104;-2.094;2023-02-13T09:32:50;102146.03;;;7.43;100.00
27334;BME280;14817;57.104;-2.094;2023-02-13T09:35:17;102139.53;;;7.32;100.00
27334;BME280;14817;57.104;-2.094;2023-02-13T09:37:44;102129.75;;;7.62;100.00
27334;BME280;14817;57.104;-2.094;2023-02-13T09:40:20;102124.50;;;7.74;100.00
27334;BME280;14817;57.104;-2.094;2023-02-13T09:42:48;102126.34;;;7.74;100.00
27334;BME280;14817;57.104;-2.094;2023-02-13T09:45:15;102123.84;;;7.56;100.00
27334;BME280;14817;57.104;-2.094;2023-02-13T09:47:42;102124.16;;;7.66;100.00
27334;BME280;14817;57.104;-2.094;2023-02-13T09:53:05;102108.13;;;8.09;100.00
27334;BME280;14817;57.104;-2.094;2023-02-13T09:55:43;102109.97;;;8.09;100.00
27334;BME280;14817;57.104;-2.094;2023-02-13T10:00:47;102103.81;;;8.21;100.00
27334;BME280;14817;57.104;-2.094;2023-02-13T10:05:57;102104.28;;;8.42;100.00
27334;BME280;14817;57.104;-2.094;2023-02-13T10:13:26;102099.91;;;8.41;100.00
27334;BME280;14817;57.104;-2.094;2023-02-13T10:16:00;102102.88;;;8.22;100.00
27334;BME280;14817;57.104;-2.094;2023-02-13T10:18:49;102105.63;;;8.35;100.00
27334;BME280;14817;57.104;-2.094;2023-02-13T10:21:19;102092.81;;;8.13;100.00
27334;BME280;14817;57.104;-2.094;2023-02-13T10:23:54;102104.13;;;8.85;100.00
27334;BME280;14817;57.104;-2.094;2023-02-13T10:26:23;102107.47;;;8.89;100.00
27334;BME280;14817;57.104;-2.094;2023-02-13T10:29:34;102096.63;;;8.50;100.00
27334;BME280;14817;57.104;-2.094;2023-02-13T10:32:14;102121.75;;;8.75;100.00
27334;BME280;14817;57.104;-2.094;2023-02-13T10:34:44;102124.78;;;8.42;100.00
27334;BME280;14817;57.104;-2.094;2023-02-13T10:37:13;102122.19;;;8.82;100.00
27334;BME280;14817;57.104;-2.094;2023-02-13T10:39:40;102115.75;;;8.71;100.00
27334;BME280;14817;57.104;-2.094;2023-02-13T10:42:17;102119.94;;;8.75;100.00
27334;BME280;14817;57.104;-2.094;2023-02-13T11:03:27;102107.47;;;8.06;100.00
27334;BME280;14817;57.104;-2.094;2023-02-13T11:05:54;102113.00;;;8.03;100.00
27334;BME280;14817;57.104;-2.094;2023-02-13T11:08:32;102099.00;;;8.13;100.00
27334;BME280;14817;57.104;-2.094;2023-02-13T11:10:59;102088.31;;;8.55;100.00
27334;BME280;14817;57.104;-2.094;2023-02-13T11:13:27;102094.81;;;8.51;100.00
27334;BME280;14817;57.104;-2.094;2023-02-13T11:15:58;102099.06;;;8.68;100.00
27334;BME280;14817;57.104;-2.094;2023-02-13T11:18:26;102093.72;;;8.68;100.00
27334;BME280;14817;57.104;-2.094;2023-02-13T11:21:05;102085.28;;;8.47;100.00
27334;BME280;14817;57.104;-2.094;2023-02-13T11:23:44;102077.41;;;8.45;100.00
27334;BME280;14817;57.104;-2.094;2023-02-13T11:26:13;102080.53;;;8.52;100.00
27334;BME280;14817;57.104;-2.094;2023-02-13T11:28:52;102084.75;;;8.27;100.00
27334;BME280;14817;57.104;-2.094;2023-02-13T11:33:49;102075.81;;;8.55;100.00
27334;BME280;14817;57.104;-2.094;2023-02-13T11:36:22;102065.44;;;8.51;100.00
27334;BME280;14817;57.104;-2.094;2023-02-13T11:38:59;102076.56;;;8.57;100.00
27334;BME280;14817;57.104;-2.094;2023-02-13T11:41:26;102064.44;;;8.39;100.00
27334;BME280;14817;57.104;-2.094;2023-02-13T11:43:54;102058.50;;;8.34;100.00
27334;BME280;14817;57.104;-2.094;2023-02-13T11:47:09;102074.53;;;8.34;100.00
27334;BME280;14817;57.104;-2.094;2023-02-13T11:49:20;102061.31;;;8.32;100.00
27334;BME280;14817;57.104;-2.094;2023-02-13T11:51:51;102065.84;;;8.45;100.00
27334;BME280;14817;57.104;-2.094;2023-02-13T11:56:48;102052.34;;;8.19;100.00
27334;BME280;14817;57.104;-2.094;2023-02-13T11:59:32;102047.38;;;8.27;100.00
27334;BME280;14817;57.104;-2.094;2023-02-13T12:02:07;102051.06;;;8.39;100.00
27334;BME280;14817;57.104;-2.094;2023-02-13T12:04:37;102052.94;;;8.24;100.00
27334;BME280;14817;57.104;-2.094;2023-02-13T12:09:47;102042.50;;;8.07;100.00
27334;BME280;14817;57.104;-2.094;2023-02-13T12:12:16;102044.34;;;7.92;100.00
27334;BME280;14817;57.104;-2.094;2023-02-13T12:14:43;102044.03;;;7.82;100.00
27334;BME280;14817;57.104;-2.094;2023-02-13T12:17:25;102040.31;;;7.85;100.00
27334;BME280;14817;57.104;-2.094;2023-02-13T12:19:58;102028.41;;;7.90;100.00
27334;BME280;14817;57.104;-2.094;2023-02-13T12:35:24;102011.69;;;7.45;100.00
27334;BME280;14817;57.104;-2.094;2023-02-13T13:14:17;101989.53;;;7.45;100.00
27334;BME280;14817;57.104;-2.094;2023-02-13T13:22:01;101998.00;;;7.51;100.00
27334;BME280;14817;57.104;-2.094;2023-02-13T13:26:57;101988.94;;;7.54;100.00
27334;BME280;14817;57.104;-2.094;2023-02-13T13:29:32;101981.31;;;7.48;100.00
27334;BME280;14817;57.104;-2.094;2023-02-13T13:32:03;101974.94;;;7.50;100.00
27334;BME280;14817;57.104;-2.094;2023-02-13T13:34:31;101981.50;;;7.59;100.00
27334;BME280;14817;57.104;-2.094;2023-02-13T13:37:01;101981.13;;;7.51;100.00
27334;BME280;14817;57.104;-2.094;2023-02-13T13:39:49;101973.69;;;7.56;100.00
27334;BME280;14817;57.104;-2.094;2023-02-13T13:42:23;101980.09;;;7.53;100.00
27334;BME280;14817;57.104;-2.094;2023-02-13T13:45:01;101970.75;;;7.61;100.00
27334;BME280;14817;57.104;-2.094;2023-02-13T13:50:18;101960.28;;;7.57;100.00
27334;BME280;14817;57.104;-2.094;2023-02-13T13:58:20;101946.88;;;7.45;100.00
27334;BME280;14817;57.104;-2.094;2023-02-13T14:01:48;101940.59;;;7.46;100.00
27334;BME280;14817;57.104;-2.094;2023-02-13T14:06:16;101945.81;;;7.47;100.00
27334;BME280;14817;57.104;-2.094;2023-02-13T14:13:52;101926.59;;;7.42;100.00
27334;BME280;14817;57.104;-2.094;2023-02-13T14:19:04;101913.94;;;7.31;100.00
27334;BME280;14817;57.104;-2.094;2023-02-13T14:21:31;101916.50;;;7.33;100.00
27334;BME280;14817;57.104;-2.094;2023-02-13T14:23:58;101916.81;;;7.28;100.00
27334;BME280;14817;57.104;-2.094;2023-02-13T14:31:24;101918.34;;;7.32;100.00
27334;BME280;14817;57.104;-2.094;2023-02-13T14:33:56;101904.34;;;7.29;100.00
27334;BME280;14817;57.104;-2.094;2023-02-13T14:36:28;101906.25;;;7.27;100.00
27334;BME280;14817;57.104;-2.094;2023-02-13T14:39:05;101899.50;;;7.21;100.00
27334;BME280;14817;57.104;-2.094;2023-02-13T14:41:40;101902.63;;;7.13;100.00
27334;BME280;14817;57.104;-2.094;2023-02-13T14:44:17;101905.00;;;7.18;100.00
27334;BME280;14817;57.104;-2.094;2023-02-13T14:46:45;101907.88;;;7.15;100.00
27334;BME280;14817;57.104;-2.094;2023-02-13T14:49:24;101900.75;;;7.15;100.00
27334;BME280;14817;57.104;-2.094;2023-02-13T14:51:56;101896.34;;;7.14;100.00
27334;BME280;14817;57.104;-2.094;2023-02-13T14:54:31;101900.81;;;7.14;100.00
27334;BME280;14817;57.104;-2.094;2023-02-13T14:59:38;101913.38;;;7.12;100.00
27334;BME280;14817;57.104;-2.094;2023-02-13T15:02:12;101914.53;;;7.08;100.00
27334;BME280;14817;57.104;-2.094;2023-02-13T15:04:45;101910.34;;;7.04;100.00
27334;BME280;14817;57.104;-2.094;2023-02-13T15:07:57;101905.22;;;7.01;100.00
27334;BME280;14817;57.104;-2.094;2023-02-13T15:10:04;101903.31;;;7.03;100.00
27334;BME280;14817;57.104;-2.094;2023-02-13T15:12:32;101904.84;;;7.07;100.00
27334;BME280;14817;57.104;-2.094;2023-02-13T15:15:00;101898.47;;;7.09;100.00
27334;BME280;14817;57.104;-2.094;2023-02-13T15:17:31;101900.56;;;7.04;100.00
27334;BME280;14817;57.104;-2.094;2023-02-13T15:20:06;101895.50;;;7.00;100.00
27334;BME280;14817;57.104;-2.094;2023-02-13T15:22:36;101898.75;;;6.90;100.00
27334;BME280;14817;57.104;-2.094;2023-02-13T15:25:05;101902.06;;;6.80;100.00
27334;BME280;14817;57.104;-2.094;2023-02-13T15:27:34;101903.97;;;6.78;100.00
27334;BME280;14817;57.104;-2.094;2023-02-13T15:30:16;101901.59;;;6.73;100.00
27334;BME280;14817;57.104;-2.094;2023-02-13T15:32:44;101906.06;;;6.72;100.00
27334;BME280;14817;57.104;-2.094;2023-02-13T15:37:43;101918.22;;;6.62;100.00
27334;BME280;14817;57.104;-2.094;2023-02-13T15:40:21;101913.25;;;6.56;100.00
27334;BME280;14817;57.104;-2.094;2023-02-13T15:42:48;101911.63;;;6.53;100.00
27334;BME280;14817;57.104;-2.094;2023-02-13T15:45:15;101915.44;;;6.49;100.00
27334;BME280;14817;57.104;-2.094;2023-02-13T15:47:44;101908.75;;;6.42;100.00
27334;BME280;14817;57.104;-2.094;2023-02-13T15:50:33;101904.66;;;6.37;100.00